Time;durP1;ratioP1;P1;durP2;ratioP2;P2;SDS_P1;SDS_P2;PMS_P1;PMS_P2;Temp;Humidity;BMP_temperature;BMP_pressure;BME280_temperature;BME280_humidity;BME280_pressure;Samples;Min_cycle;Max_cycle;Signal;HPM_P1;HPM_P2
2022/12/04 00:00:03;;;;;;;4.38;3.70;;;;;;;;;;4531397;28;20032;-59
2022/12/04 00:02:14;;;;;;;6.25;5.40;;;;;;;;;;4530617;28;20084;-58
2022/12/04 00:04:25;;;;;;;6.93;5.60;;;;;;;;;;4531309;28;20124;-58
2022/12/04 00:06:35;;;;;;;3.38;2.30;;;;;;;;;;4532780;28;20906;-58
2022/12/04 00:08:46;;;;;;;3.60;3.15;;;;;;;;;;4512818;28;20026;-58
2022/12/04 00:10:57;;;;;;;6.30;5.05;;;;;;;;;;4530858;28;20034;-58
2022/12/04 00:13:07;;;;;;;6.60;5.28;;;;;;;;;;4531052;28;20033;-58
2022/12/04 00:15:17;;;;;;;6.18;5.30;;;;;;;;;;4531052;28;20033;-58
2022/12/04 00:17:28;;;;;;;5.97;5.30;;;;;;;;;;4523878;28;20046;-58
2022/12/04 00:19:38;;;;;;;7.20;5.45;;;;;;;;;;4531250;28;20128;-58
2022/12/04 00:21:49;;;;;;;6.30;5.20;;;;;;;;;;4530623;28;20053;-58
2022/12/04 00:24:00;;;;;;;6.28;5.18;;;;;;;;;;4531620;28;20021;-58
2022/12/04 00:26:20;;;;;;;6.45;5.60;;;;;;;;;;4530485;28;20788;-58
2022/12/04 00:28:31;;;;;;;6.82;5.45;;;;;;;;;;4531142;28;20477;-58
2022/12/04 00:30:42;;;;;;;6.90;5.65;;;;;;;;;;4532949;28;20370;-59
2022/12/04 00:32:53;;;;;;;7.65;5.80;;;;;;;;;;4531742;28;20033;-58
2022/12/04 00:35:03;;;;;;;6.80;5.78;;;;;;;;;;4530237;28;20045;-58
2022/12/04 00:37:13;;;;;;;7.93;6.40;;;;;;;;;;4533652;28;20370;-58
2022/12/04 00:39:24;;;;;;;7.35;6.38;;;;;;;;;;4532391;28;20038;-58
2022/12/04 00:41:34;;;;;;;7.85;6.32;;;;;;;;;;4531981;28;20524;-58
2022/12/04 00:43:45;;;;;;;7.15;6.35;;;;;;;;;;4516654;28;20049;-59
2022/12/04 00:45:55;;;;;;;7.78;6.20;;;;;;;;;;4531126;28;20037;-58
2022/12/04 00:48:05;;;;;;;7.72;6.03;;;;;;;;;;4532048;28;20116;-59
2022/12/04 00:50:16;;;;;;;7.85;6.47;;;;;;;;;;4515992;28;20042;-58
2022/12/04 00:52:27;;;;;;;7.30;5.88;;;;;;;;;;4530358;28;20059;-59
2022/12/04 00:54:37;;;;;;;7.70;5.97;;;;;;;;;;4531088;28;20048;-59
2022/12/04 00:56:47;;;;;;;6.95;5.75;;;;;;;;;;4529872;28;20446;-59
2022/12/04 00:58:58;;;;;;;7.63;6.05;;;;;;;;;;4531542;28;20097;-58
2022/12/04 01:01:10;;;;;;;7.72;6.20;;;;;;;;;;4529934;28;20121;-59
2022/12/04 01:03:20;;;;;;;7.70;6.32;;;;;;;;;;4531359;28;20032;-58
2022/12/04 01:05:31;;;;;;;6.88;5.68;;;;;;;;;;4530164;28;20409;-59
2022/12/04 01:07:42;;;;;;;7.32;6.22;;;;;;;;;;4529960;28;20226;-59
2022/12/04 01:09:52;;;;;;;6.93;6.03;;;;;;;;;;4532070;28;20620;-58
2022/12/04 01:12:02;;;;;;;7.20;5.72;;;;;;;;;;4530939;28;20427;-58
2022/12/04 01:14:13;;;;;;;7.07;5.90;;;;;;;;;;4530721;28;20034;-59
2022/12/04 01:16:25;;;;;;;6.30;5.57;;;;;;;;;;4531177;28;20040;-59
2022/12/04 01:18:35;;;;;;;6.72;5.63;;;;;;;;;;4530042;28;20089;-58
2022/12/04 01:20:49;;;;;;;7.32;6.10;;;;;;;;;;4528276;28;20049;-59
2022/12/04 01:22:59;;;;;;;7.03;5.45;;;;;;;;;;4530447;28;20084;-59
2022/12/04 01:25:10;;;;;;;6.68;5.57;;;;;;;;;;4529349;28;20482;-58
2022/12/04 01:27:20;;;;;;;6.88;5.70;;;;;;;;;;4531634;28;20040;-58
2022/12/04 01:29:30;;;;;;;7.47;5.90;;;;;;;;;;4531174;28;20032;-59
2022/12/04 01:31:41;;;;;;;6.95;5.55;;;;;;;;;;4531277;28;20762;-58
2022/12/04 01:33:51;;;;;;;6.85;5.57;;;;;;;;;;4530691;28;20045;-58
2022/12/04 01:36:03;;;;;;;7.32;6.15;;;;;;;;;;4529714;28;20041;-57
2022/12/04 01:38:13;;;;;;;6.65;5.38;;;;;;;;;;4527581;28;20559;-59
2022/12/04 01:40:23;;;;;;;6.57;5.47;;;;;;;;;;4530416;28;20039;-57
2022/12/04 01:42:33;;;;;;;6.90;6.05;;;;;;;;;;4530455;28;20041;-59
2022/12/04 01:45:04;;;;;;;7.10;5.70;;;;;;;;;;4530199;28;20037;-59
2022/12/04 01:47:14;;;;;;;6.63;5.38;;;;;;;;;;4530547;28;20095;-58
2022/12/04 01:49:45;;;;;;;7.32;6.15;;;;;;;;;;4528203;28;20109;-58
2022/12/04 01:51:57;;;;;;;6.50;5.57;;;;;;;;;;4529805;28;20041;-58
2022/12/04 01:54:10;;;;;;;6.82;5.55;;;;;;;;;;4529614;28;20030;-58
2022/12/04 01:56:23;;;;;;;7.50;6.00;;;;;;;;;;4514120;28;20042;-58
2022/12/04 01:58:36;;;;;;;6.80;5.90;;;;;;;;;;4530130;28;20043;-59
2022/12/04 02:00:50;;;;;;;7.00;5.80;;;;;;;;;;4521146;28;20045;-59
2022/12/04 02:03:00;;;;;;;6.90;5.95;;;;;;;;;;4521897;28;20041;-58
2022/12/04 02:05:12;;;;;;;7.50;6.05;;;;;;;;;;4531319;28;20021;-59
2022/12/04 02:07:22;;;;;;;7.28;6.10;;;;;;;;;;4514768;28;20160;-59
2022/12/04 02:09:33;;;;;;;7.97;6.30;;;;;;;;;;4529438;28;20037;-58
2022/12/04 02:11:59;;;;;;;6.65;5.57;;;;;;;;;;4530023;28;20180;-58
2022/12/04 02:14:18;;;;;;;7.63;5.88;;;;;;;;;;4531125;28;20041;-59
2022/12/04 02:16:32;;;;;;;7.32;6.10;;;;;;;;;;4529851;28;20063;-58
2022/12/04 02:19:06;;;;;;;6.80;5.50;;;;;;;;;;4529984;28;20111;-58
2022/12/04 02:21:35;;;;;;;7.43;6.00;;;;;;;;;;4530578;28;20037;-58
2022/12/04 02:24:04;;;;;;;6.93;5.85;;;;;;;;;;4514977;28;20116;-58
2022/12/04 02:26:14;;;;;;;6.63;5.85;;;;;;;;;;4529968;28;20037;-58
2022/12/04 02:28:27;;;;;;;7.43;5.75;;;;;;;;;;4529768;28;20041;-58
2022/12/04 02:30:39;;;;;;;7.45;6.18;;;;;;;;;;4520948;28;20037;-58
2022/12/04 02:32:49;;;;;;;6.55;5.50;;;;;;;;;;4529049;28;20041;-59
2022/12/04 02:35:08;;;;;;;7.32;5.85;;;;;;;;;;4529184;28;20029;-58
2022/12/04 02:37:29;;;;;;;7.40;5.80;;;;;;;;;;4514135;28;20863;-58
2022/12/04 02:39:42;;;;;;;6.78;5.65;;;;;;;;;;4530647;28;20579;-58
2022/12/04 02:41:56;;;;;;;7.32;5.80;;;;;;;;;;4527957;28;20207;-59
2022/12/04 02:44:09;;;;;;;7.07;5.45;;;;;;;;;;4530455;28;20083;-59
2022/12/04 02:46:27;;;;;;;6.85;5.68;;;;;;;;;;4529189;28;20647;-58
2022/12/04 02:48:39;;;;;;;5.93;5.20;;;;;;;;;;4514237;28;20071;-58
2022/12/04 02:50:52;;;;;;;6.03;5.40;;;;;;;;;;4529303;28;20029;-58
2022/12/04 02:53:06;;;;;;;7.15;5.60;;;;;;;;;;4530574;28;20037;-59
2022/12/04 02:55:20;;;;;;;7.57;5.88;;;;;;;;;;4529053;28;20076;-58
2022/12/04 02:57:33;;;;;;;5.95;5.28;;;;;;;;;;4530562;28;20045;-58
2022/12/04 02:59:46;;;;;;;6.32;5.63;;;;;;;;;;4529396;28;20616;-58
2022/12/04 03:01:58;;;;;;;6.60;5.45;;;;;;;;;;4527953;28;20038;-58
2022/12/04 03:04:19;;;;;;;6.22;5.28;;;;;;;;;;4529304;28;20031;-59
2022/12/04 03:06:32;;;;;;;5.57;4.97;;;;;;;;;;4529665;28;20044;-58
2022/12/04 03:08:44;;;;;;;6.25;5.15;;;;;;;;;;4529367;28;20034;-58
2022/12/04 03:10:56;;;;;;;6.20;5.30;;;;;;;;;;4530480;28;20658;-58
2022/12/04 03:13:10;;;;;;;7.18;5.28;;;;;;;;;;4529155;28;20600;-59
2022/12/04 03:15:26;;;;;;;5.97;5.20;;;;;;;;;;4529158;28;20048;-58
2022/12/04 03:17:53;;;;;;;6.68;5.18;;;;;;;;;;4530133;28;20045;-58
2022/12/04 03:20:09;;;;;;;6.10;5.22;;;;;;;;;;4529228;28;20029;-59
2022/12/04 03:22:20;;;;;;;5.53;4.60;;;;;;;;;;4529470;28;20636;-59
2022/12/04 03:24:39;;;;;;;6.20;5.07;;;;;;;;;;4529063;28;20123;-59
2022/12/04 03:26:53;;;;;;;6.43;5.20;;;;;;;;;;4528394;28;20040;-59
2022/12/04 03:29:10;;;;;;;6.07;4.95;;;;;;;;;;4528514;28;20040;-58
2022/12/04 03:31:20;;;;;;;;;;;;;;;;;;4529011;28;20604;-58
2022/12/04 03:33:39;;;;;;;5.40;4.70;;;;;;;;;;4520535;28;19944;-58
2022/12/04 03:35:49;;;;;;;6.43;4.97;;;;;;;;;;4529649;28;20241;-58
2022/12/04 03:38:00;;;;;;;5.55;4.40;;;;;;;;;;4530027;28;20557;-59
2022/12/04 03:40:20;;;;;;;5.32;4.40;;;;;;;;;;4529516;28;20045;-58
2022/12/04 03:42:34;;;;;;;5.40;4.30;;;;;;;;;;4531364;28;20048;-59
2022/12/04 03:44:47;;;;;;;5.78;4.80;;;;;;;;;;4532062;28;20026;-58
2022/12/04 03:46:59;;;;;;;5.93;4.40;;;;;;;;;;4531288;28;20045;-58
2022/12/04 03:49:09;;;;;;;5.30;4.55;;;;;;;;;;4533426;28;20038;-58
2022/12/04 03:51:20;;;;;;;4.88;4.28;;;;;;;;;;4531242;28;20207;-59
2022/12/04 03:53:56;;;;;;;4.65;3.88;;;;;;;;;;4530863;28;20033;-58
2022/12/04 03:56:15;;;;;;;4.68;3.97;;;;;;;;;;4528295;28;20221;-58
2022/12/04 03:58:28;;;;;;;4.60;3.78;;;;;;;;;;4530982;28;20041;-59
2022/12/04 04:00:40;;;;;;;5.05;4.10;;;;;;;;;;4532448;28;20028;-58
2022/12/04 04:02:53;;;;;;;5.18;3.70;;;;;;;;;;4534208;28;20036;-58
2022/12/04 04:05:05;;;;;;;4.85;3.90;;;;;;;;;;4531033;28;20651;-58
2022/12/04 04:07:21;;;;;;;5.07;3.90;;;;;;;;;;4531730;28;20041;-58
2022/12/04 04:09:37;;;;;;;4.90;3.75;;;;;;;;;;4532089;28;20029;-58
2022/12/04 04:11:51;;;;;;;4.40;3.73;;;;;;;;;;4531332;28;20045;-58
2022/12/04 04:24:28;;;;;;;3.90;3.38;;;;;;;;;;4531365;28;20048;-59
2022/12/04 04:26:42;;;;;;;3.60;3.20;;;;;;;;;;4530979;28;20137;-58
2022/12/04 04:28:52;;;;;;;3.85;3.45;;;;;;;;;;4533255;28;20101;-58
2022/12/04 04:31:08;;;;;;;3.70;3.10;;;;;;;;;;4531956;28;20886;-59
2022/12/04 04:33:20;;;;;;;4.67;3.30;;;;;;;;;;4530054;28;20041;-58
2022/12/04 04:35:33;;;;;;;3.83;3.30;;;;;;;;;;4522833;28;20044;-58
2022/12/04 04:37:43;;;;;;;4.03;3.38;;;;;;;;;;4530975;28;20041;-58
2022/12/04 04:40:13;;;;;;;4.32;3.45;;;;;;;;;;4516559;28;20045;-59
2022/12/04 04:42:26;;;;;;;4.05;3.10;;;;;;;;;;4531841;28;20169;-59
2022/12/04 04:44:36;;;;;;;3.55;3.05;;;;;;;;;;4529821;28;20095;-58
2022/12/04 04:46:50;;;;;;;3.63;3.10;;;;;;;;;;4531463;28;20124;-59
2022/12/04 04:49:01;;;;;;;3.42;2.88;;;;;;;;;;4532897;28;20040;-59
2022/12/04 04:51:12;;;;;;;3.38;2.90;;;;;;;;;;4531736;28;20092;-58
2022/12/04 04:53:28;;;;;;;3.35;2.90;;;;;;;;;;4529308;28;20037;-58
2022/12/04 04:55:38;;;;;;;4.03;2.97;;;;;;;;;;4531882;28;20058;-58
2022/12/04 04:57:48;;;;;;;3.58;2.90;;;;;;;;;;4529918;28;20478;-58
2022/12/04 04:59:59;;;;;;;3.88;3.13;;;;;;;;;;4530592;28;20132;-58
2022/12/04 05:02:10;;;;;;;3.38;2.95;;;;;;;;;;4532205;28;20052;-61
2022/12/04 05:04:20;;;;;;;3.50;2.95;;;;;;;;;;4531721;28;20454;-58
2022/12/04 05:06:30;;;;;;;3.28;2.90;;;;;;;;;;4530096;28;20044;-59
2022/12/04 05:08:41;;;;;;;3.17;2.58;;;;;;;;;;4530974;28;20040;-58
2022/12/04 05:10:51;;;;;;;3.28;2.80;;;;;;;;;;4530832;28;20045;-58
2022/12/04 05:13:02;;;;;;;3.20;2.80;;;;;;;;;;4532156;28;20885;-58
2022/12/04 05:15:12;;;;;;;3.03;2.63;;;;;;;;;;4531009;28;20111;-58
2022/12/04 05:17:22;;;;;;;3.47;2.95;;;;;;;;;;4529681;28;20768;-58
2022/12/04 05:22:02;;;;;;;4.00;3.00;;;;;;;;;;4530515;28;20029;-58
2022/12/04 05:24:12;;;;;;;3.22;2.90;;;;;;;;;;4531914;28;20045;-59
2022/12/04 05:26:23;;;;;;;3.50;2.65;;;;;;;;;;4530954;28;20095;-58
2022/12/04 05:28:33;;;;;;;3.53;2.63;;;;;;;;;;4529286;28;20052;-58
2022/12/04 05:30:43;;;;;;;3.72;2.90;;;;;;;;;;4530503;28;20115;-58
2022/12/04 05:32:53;;;;;;;3.13;2.70;;;;;;;;;;4529385;28;20604;-58
2022/12/04 05:35:04;;;;;;;3.20;2.90;;;;;;;;;;4530449;28;20080;-59
2022/12/04 05:37:14;;;;;;;3.03;2.63;;;;;;;;;;4531450;28;20025;-59
2022/12/04 05:39:24;;;;;;;3.22;2.88;;;;;;;;;;4531512;28;20041;-58
2022/12/04 05:41:35;;;;;;;3.50;2.97;;;;;;;;;;4530627;28;20034;-58
2022/12/04 05:43:45;;;;;;;3.03;2.55;;;;;;;;;;4514801;28;20041;-58
2022/12/04 05:46:02;;;;;;;3.83;2.97;;;;;;;;;;4530135;28;20037;-59
2022/12/04 05:48:13;;;;;;;3.55;2.80;;;;;;;;;;4529565;28;20110;-58
2022/12/04 05:50:23;;;;;;;3.47;2.90;;;;;;;;;;4530552;28;20056;-58
2022/12/04 05:52:33;;;;;;;3.35;2.78;;;;;;;;;;4529166;28;20033;-58
2022/12/04 05:54:44;;;;;;;3.22;2.72;;;;;;;;;;4530171;28;20037;-58
2022/12/04 05:56:54;;;;;;;4.03;3.00;;;;;;;;;;4530225;28;20412;-58
2022/12/04 05:59:04;;;;;;;3.50;3.03;;;;;;;;;;4529567;28;20045;-59
2022/12/04 06:01:19;;;;;;;3.53;2.72;;;;;;;;;;4530812;28;20365;-59
2022/12/04 06:03:30;;;;;;;3.85;3.08;;;;;;;;;;4530097;28;20041;-59
2022/12/04 06:05:40;;;;;;;3.92;2.90;;;;;;;;;;4529303;28;20394;-59
2022/12/04 06:07:50;;;;;;;3.83;2.90;;;;;;;;;;4529161;28;20079;-58
2022/12/04 06:10:00;;;;;;;3.10;2.80;;;;;;;;;;4511620;28;20116;-58
2022/12/04 06:12:11;;;;;;;3.80;3.05;;;;;;;;;;4512503;28;20057;-59
2022/12/04 06:14:21;;;;;;;3.40;2.92;;;;;;;;;;4531657;28;20123;-58
2022/12/04 06:16:36;;;;;;;3.85;3.10;;;;;;;;;;4529284;28;20092;-58
2022/12/04 06:18:50;;;;;;;3.55;3.00;;;;;;;;;;4529788;28;20029;-58
2022/12/04 06:21:00;;;;;;;3.30;2.80;;;;;;;;;;4529473;28;20025;-59
2022/12/04 06:23:11;;;;;;;4.05;3.33;;;;;;;;;;4530268;28;20041;-58
2022/12/04 06:25:21;;;;;;;3.83;3.03;;;;;;;;;;4530284;28;20037;-58
2022/12/04 06:27:31;;;;;;;3.65;2.85;;;;;;;;;;4531606;28;20028;-59
2022/12/04 06:29:41;;;;;;;3.90;3.00;;;;;;;;;;4529703;28;20097;-58
2022/12/04 06:31:52;;;;;;;2.90;2.50;;;;;;;;;;4529309;28;20136;-58
2022/12/04 06:34:02;;;;;;;3.30;2.85;;;;;;;;;;4513667;28;20033;-59
2022/12/04 06:36:14;;;;;;;3.85;3.05;;;;;;;;;;4530075;28;20026;-59
2022/12/04 06:38:24;;;;;;;3.83;2.85;;;;;;;;;;4529212;28;20038;-59
2022/12/04 06:40:38;;;;;;;3.38;2.75;;;;;;;;;;4529706;28;20033;-59
2022/12/04 06:42:48;;;;;;;3.13;2.83;;;;;;;;;;4529374;28;20033;-57
2022/12/04 06:44:58;;;;;;;3.42;2.75;;;;;;;;;;4528823;28;20038;-58
2022/12/04 06:47:09;;;;;;;3.58;2.90;;;;;;;;;;4528965;28;20040;-59
2022/12/04 06:49:21;;;;;;;3.78;3.10;;;;;;;;;;4531680;28;20034;-58
2022/12/04 06:51:34;;;;;;;3.05;2.72;;;;;;;;;;4529116;28;20138;-58
2022/12/04 06:53:44;;;;;;;3.58;3.08;;;;;;;;;;4530239;28;20030;-59
2022/12/04 06:55:55;;;;;;;3.08;2.70;;;;;;;;;;4528227;28;20045;-58
2022/12/04 06:58:06;;;;;;;3.38;2.90;;;;;;;;;;4530449;28;20061;-59
2022/12/04 07:00:16;;;;;;;3.67;2.90;;;;;;;;;;4530126;28;20124;-58
2022/12/04 07:02:26;;;;;;;3.63;2.83;;;;;;;;;;4529574;28;20080;-59
2022/12/04 07:04:37;;;;;;;3.50;2.83;;;;;;;;;;4528735;28;20037;-59
2022/12/04 07:06:47;;;;;;;3.67;3.08;;;;;;;;;;4528692;28;20032;-58
2022/12/04 07:08:59;;;;;;;3.30;2.92;;;;;;;;;;4529736;28;20037;-58
2022/12/04 07:11:09;;;;;;;3.30;2.88;;;;;;;;;;4520153;28;20045;-59
2022/12/04 07:13:20;;;;;;;3.47;2.90;;;;;;;;;;4527332;28;20033;-58
2022/12/04 07:15:31;;;;;;;3.20;2.60;;;;;;;;;;4529415;28;20053;-58
2022/12/04 07:17:41;;;;;;;2.88;2.45;;;;;;;;;;4529776;28;20095;-59
2022/12/04 07:19:52;;;;;;;2.95;2.53;;;;;;;;;;4532639;28;20172;-59
2022/12/04 07:22:02;;;;;;;3.50;2.70;;;;;;;;;;4530759;28;20037;-59
2022/12/04 07:24:14;;;;;;;2.90;2.40;;;;;;;;;;4532165;28;20041;-58
2022/12/04 07:26:25;;;;;;;2.53;2.33;;;;;;;;;;4532323;28;20591;-59
2022/12/04 07:28:36;;;;;;;3.25;2.53;;;;;;;;;;4532371;28;20041;-59
2022/12/04 07:30:46;;;;;;;2.97;2.67;;;;;;;;;;4533335;28;20037;-59
2022/12/04 07:32:56;;;;;;;3.13;2.50;;;;;;;;;;4532155;28;20030;-58
2022/12/04 07:35:07;;;;;;;2.80;2.38;;;;;;;;;;4531193;28;20212;-58
2022/12/04 07:37:17;;;;;;;2.75;2.30;;;;;;;;;;4514272;28;20502;-58
2022/12/04 07:39:28;;;;;;;2.97;2.42;;;;;;;;;;4531187;28;20095;-57
2022/12/04 07:41:38;;;;;;;2.88;2.38;;;;;;;;;;4523447;28;20085;-58
2022/12/04 07:43:52;;;;;;;2.75;2.40;;;;;;;;;;4532160;28;20040;-58
2022/12/04 07:46:03;;;;;;;2.97;2.40;;;;;;;;;;4516972;28;20040;-58
2022/12/04 07:48:14;;;;;;;2.55;2.20;;;;;;;;;;4533437;28;20048;-59
2022/12/04 07:50:24;;;;;;;2.78;2.33;;;;;;;;;;4532231;28;20463;-59
2022/12/04 07:52:36;;;;;;;2.95;2.40;;;;;;;;;;4531717;28;20691;-58
2022/12/04 07:54:46;;;;;;;3.30;2.40;;;;;;;;;;4530716;28;20152;-58
2022/12/04 07:56:56;;;;;;;2.75;2.45;;;;;;;;;;4530949;28;20048;-59
2022/12/04 07:59:07;;;;;;;3.40;2.95;;;;;;;;;;4521890;28;20117;-58
2022/12/04 08:01:19;;;;;;;3.03;2.45;;;;;;;;;;4530173;28;20136;-58
2022/12/04 08:03:29;;;;;;;3.00;2.40;;;;;;;;;;4530233;28;20084;-58
2022/12/04 08:05:40;;;;;;;2.92;2.30;;;;;;;;;;4532429;28;20520;-59
2022/12/04 08:07:50;;;;;;;3.28;2.70;;;;;;;;;;4530182;28;20029;-59
2022/12/04 08:10:00;;;;;;;3.15;2.78;;;;;;;;;;4530326;28;20129;-58
2022/12/04 08:12:11;;;;;;;3.00;2.70;;;;;;;;;;4530781;28;20036;-58
2022/12/04 08:14:21;;;;;;;3.17;2.70;;;;;;;;;;4530721;28;20077;-58
2022/12/04 08:16:32;;;;;;;2.80;2.40;;;;;;;;;;4530960;28;20064;-58
2022/12/04 08:18:45;;;;;;;3.08;2.72;;;;;;;;;;4531594;28;20120;-58
2022/12/04 08:21:03;;;;;;;3.70;3.03;;;;;;;;;;4517981;28;20045;-58
2022/12/04 08:23:13;;;;;;;3.50;2.90;;;;;;;;;;4531312;28;20041;-58
2022/12/04 08:25:23;;;;;;;2.95;2.50;;;;;;;;;;4530717;28;20041;-58
2022/12/04 08:27:34;;;;;;;2.90;2.60;;;;;;;;;;4531369;28;20108;-58
2022/12/04 08:29:45;;;;;;;3.55;2.90;;;;;;;;;;4528188;28;20727;-58
2022/12/04 08:31:55;;;;;;;3.33;2.85;;;;;;;;;;4530477;28;20500;-58
2022/12/04 08:34:06;;;;;;;3.25;2.70;;;;;;;;;;4529872;28;20047;-58
2022/12/04 08:36:18;;;;;;;3.50;3.20;;;;;;;;;;4529552;28;20022;-58
2022/12/04 08:38:28;;;;;;;3.05;2.67;;;;;;;;;;4529504;28;20041;-58
2022/12/04 08:40:38;;;;;;;3.00;2.50;;;;;;;;;;4515961;28;20482;-58
2022/12/04 08:42:49;;;;;;;3.08;2.78;;;;;;;;;;4514686;28;20045;-58
2022/12/04 08:44:59;;;;;;;3.42;2.80;;;;;;;;;;4529380;28;20029;-58
2022/12/04 08:47:09;;;;;;;3.30;2.80;;;;;;;;;;4529592;28;20045;-58
2022/12/04 08:49:20;;;;;;;2.80;2.50;;;;;;;;;;4529288;28;20034;-58
2022/12/04 08:51:31;;;;;;;3.20;2.80;;;;;;;;;;4530486;28;20037;-58
2022/12/04 08:53:42;;;;;;;3.20;2.75;;;;;;;;;;4514843;28;20136;-58
2022/12/04 08:55:52;;;;;;;2.92;2.55;;;;;;;;;;4515193;28;20047;-59
2022/12/04 08:58:03;;;;;;;3.28;2.60;;;;;;;;;;4529934;28;20049;-61
2022/12/04 09:00:14;;;;;;;3.75;2.83;;;;;;;;;;4529278;28;20385;-61
2022/12/04 09:02:24;;;;;;;3.20;2.70;;;;;;;;;;4528867;28;20112;-61
2022/12/04 09:04:35;;;;;;;3.33;2.75;;;;;;;;;;4530378;28;20099;-61
2022/12/04 09:06:45;;;;;;;3.80;2.88;;;;;;;;;;4528358;28;20182;-61
2022/12/04 09:08:55;;;;;;;3.33;2.67;;;;;;;;;;4529732;28;20057;-61
2022/12/04 09:11:10;;;;;;;3.30;2.70;;;;;;;;;;4528641;28;20044;-61
2022/12/04 09:13:20;;;;;;;3.13;2.50;;;;;;;;;;4522565;28;20157;-61
2022/12/04 09:15:31;;;;;;;3.05;2.50;;;;;;;;;;4529500;28;20099;-61
2022/12/04 09:17:41;;;;;;;3.47;2.60;;;;;;;;;;4512943;28;20041;-61
2022/12/04 09:19:51;;;;;;;3.40;2.90;;;;;;;;;;4530719;28;20104;-61
2022/12/04 09:22:02;;;;;;;3.60;2.85;;;;;;;;;;4527780;28;20048;-60
2022/12/04 09:24:12;;;;;;;3.35;2.70;;;;;;;;;;4528944;28;20713;-61
2022/12/04 09:26:27;;;;;;;3.22;2.70;;;;;;;;;;4529438;28;20497;-59
2022/12/04 09:28:38;;;;;;;2.75;2.42;;;;;;;;;;4528817;28;20037;-61
2022/12/04 09:30:58;;;;;;;2.97;2.67;;;;;;;;;;4513820;28;20825;-65
2022/12/04 09:33:08;;;;;;;3.42;2.70;;;;;;;;;;4526536;28;20040;-64
2022/12/04 09:35:19;;;;;;;3.10;2.60;;;;;;;;;;4529260;28;20044;-65
2022/12/04 09:37:29;;;;;;;3.53;2.90;;;;;;;;;;4527527;28;20046;-63
2022/12/04 09:39:39;;;;;;;3.00;2.60;;;;;;;;;;4530562;28;20427;-61
2022/12/04 09:42:02;;;;;;;3.20;2.58;;;;;;;;;;4528946;28;20061;-61
2022/12/04 09:44:28;;;;;;;2.90;2.60;;;;;;;;;;4528875;28;20033;-61
2022/12/04 09:46:45;;;;;;;3.42;2.88;;;;;;;;;;4530242;28;20045;-61
2022/12/04 09:48:57;;;;;;;3.20;2.65;;;;;;;;;;4528349;28;21220;-62
2022/12/04 09:51:17;;;;;;;2.97;2.67;;;;;;;;;;4528009;28;20036;-60
2022/12/04 09:53:40;;;;;;;3.20;2.67;;;;;;;;;;4529780;28;20045;-60
2022/12/04 09:55:55;;;;;;;3.38;2.58;;;;;;;;;;4527400;28;20036;-59
2022/12/04 09:58:09;;;;;;;2.50;2.20;;;;;;;;;;4528783;28;20045;-61
2022/12/04 10:00:19;;;;;;;2.95;2.50;;;;;;;;;;4530683;28;20208;-60
2022/12/04 10:02:35;;;;;;;3.17;2.50;;;;;;;;;;4529829;28;20103;-60
2022/12/04 10:04:46;;;;;;;3.05;2.30;;;;;;;;;;4527298;28;20521;-60
2022/12/04 10:06:59;;;;;;;2.88;2.40;;;;;;;;;;4528620;28;20033;-60
2022/12/04 10:09:17;;;;;;;3.40;2.80;;;;;;;;;;4528034;28;20040;-60
2022/12/04 10:11:27;;;;;;;2.90;2.42;;;;;;;;;;4527499;28;20160;-63
2022/12/04 10:13:40;;;;;;;3.20;2.28;;;;;;;;;;4529377;28;20502;-62
2022/12/04 10:15:59;;;;;;;3.00;2.53;;;;;;;;;;4528800;28;20034;-62
2022/12/04 10:18:16;;;;;;;3.00;2.67;;;;;;;;;;4529297;28;20049;-61
2022/12/04 10:20:44;;;;;;;2.90;2.42;;;;;;;;;;4530608;28;20096;-60
2022/12/04 10:23:06;;;;;;;2.95;2.50;;;;;;;;;;4528596;28;20049;-60
2022/12/04 10:25:23;;;;;;;2.60;2.40;;;;;;;;;;4531123;28;20039;-61
2022/12/04 10:27:33;;;;;;;;;;;;;;;;;;4530464;28;20076;-63
2022/12/04 10:29:46;;;;;;;2.90;2.60;;;;;;;;;;4528143;28;20433;-62
2022/12/04 10:32:00;;;;;;;2.92;2.50;;;;;;;;;;4527260;28;20033;-60
2022/12/04 10:34:18;;;;;;;2.80;2.47;;;;;;;;;;4513461;28;20038;-62
2022/12/04 10:36:31;;;;;;;3.22;2.40;;;;;;;;;;4529330;28;20058;-62
2022/12/04 10:38:41;;;;;;;3.00;2.42;;;;;;;;;;4529548;28;20536;-60
2022/12/04 10:40:58;;;;;;;2.30;2.10;;;;;;;;;;4529682;28;20036;-62
2022/12/04 10:43:08;;;;;;;;;;;;;;;;;;4530083;28;20088;-62
2022/12/04 10:45:20;;;;;;;3.30;2.60;;;;;;;;;;4529250;28;19924;-63
2022/12/04 10:47:31;;;;;;;3.13;2.75;;;;;;;;;;4529846;28;20069;-61
2022/12/04 10:49:41;;;;;;;2.70;2.40;;;;;;;;;;4514080;28;20128;-61
2022/12/04 10:51:52;;;;;;;3.58;2.65;;;;;;;;;;4527728;28;20064;-61
2022/12/04 10:54:10;;;;;;;2.97;2.45;;;;;;;;;;4529152;28;20048;-61
2022/12/04 10:56:21;;;;;;;3.47;2.85;;;;;;;;;;4529858;28;20033;-61
2022/12/04 10:58:32;;;;;;;2.92;2.50;;;;;;;;;;4511376;28;20081;-70
2022/12/04 11:00:44;;;;;;;2.90;2.58;;;;;;;;;;4527654;28;20128;-63
2022/12/04 11:02:56;;;;;;;3.00;2.60;;;;;;;;;;4529451;28;20040;-64
2022/12/04 11:05:21;;;;;;;3.08;2.45;;;;;;;;;;4519143;28;20953;-63
2022/12/04 11:07:43;;;;;;;3.20;2.83;;;;;;;;;;4527344;28;20695;-66
2022/12/04 11:09:55;;;;;;;3.15;2.55;;;;;;;;;;4529114;28;20036;-60
2022/12/04 11:12:08;;;;;;;3.03;2.50;;;;;;;;;;4528070;28;20525;-61
2022/12/04 11:14:20;;;;;;;3.20;2.70;;;;;;;;;;4528508;28;20033;-61
2022/12/04 11:16:37;;;;;;;2.95;2.53;;;;;;;;;;4528855;28;20033;-61
2022/12/04 11:18:49;;;;;;;2.95;2.60;;;;;;;;;;4526839;28;20053;-61
2022/12/04 11:21:02;;;;;;;3.35;2.80;;;;;;;;;;4528244;28;20029;-61
2022/12/04 11:23:13;;;;;;;3.05;2.60;;;;;;;;;;4529148;28;20260;-61
2022/12/04 11:25:29;;;;;;;3.00;2.65;;;;;;;;;;4527122;28;20029;-60
2022/12/04 11:27:40;;;;;;;3.50;2.90;;;;;;;;;;4528161;28;20049;-63
2022/12/04 11:29:50;;;;;;;3.47;2.88;;;;;;;;;;4527738;28;20591;-63
2022/12/04 11:32:01;;;;;;;3.70;3.10;;;;;;;;;;4526335;28;20038;-61
2022/12/04 11:34:15;;;;;;;3.50;2.67;;;;;;;;;;4528132;28;20516;-61
2022/12/04 11:36:42;;;;;;;3.80;3.05;;;;;;;;;;4528267;28;20099;-60
2022/12/04 11:38:53;;;;;;;3.42;2.85;;;;;;;;;;4526862;28;20049;-61
2022/12/04 11:41:05;;;;;;;3.78;3.35;;;;;;;;;;4526891;28;20084;-61
2022/12/04 11:43:16;;;;;;;3.95;3.20;;;;;;;;;;4528778;28;20112;-61
2022/12/04 11:45:27;;;;;;;4.07;3.35;;;;;;;;;;4527642;28;20062;-61
2022/12/04 11:47:37;;;;;;;4.07;3.30;;;;;;;;;;4529379;28;20044;-61
2022/12/04 11:50:10;;;;;;;4.72;3.70;;;;;;;;;;4527799;28;20953;-61
2022/12/04 11:52:29;;;;;;;4.25;3.67;;;;;;;;;;4511209;28;20104;-61
2022/12/04 11:54:51;;;;;;;4.30;3.72;;;;;;;;;;4529445;28;20565;-61
2022/12/04 11:57:13;;;;;;;3.70;3.20;;;;;;;;;;4528680;28;20041;-60
2022/12/04 11:59:32;;;;;;;5.03;4.07;;;;;;;;;;4528833;28;20129;-60
2022/12/04 12:02:01;;;;;;;4.68;4.05;;;;;;;;;;4529051;28;20026;-61
2022/12/04 12:04:29;;;;;;;4.25;3.67;;;;;;;;;;4529730;28;20033;-61
2022/12/04 12:06:53;;;;;;;4.88;4.00;;;;;;;;;;4516070;28;20065;-61
2022/12/04 12:09:06;;;;;;;4.35;3.70;;;;;;;;;;4531915;28;20975;-61
2022/12/04 12:11:23;;;;;;;4.72;3.88;;;;;;;;;;4522985;28;20092;-61
2022/12/04 12:13:33;;;;;;;4.78;3.83;;;;;;;;;;4532903;28;20049;-61
2022/12/04 12:16:02;;;;;;;4.65;4.00;;;;;;;;;;4531950;28;20033;-61
2022/12/04 12:18:27;;;;;;;4.90;4.05;;;;;;;;;;4531615;28;20080;-61
2022/12/04 12:21:04;;;;;;;4.97;4.05;;;;;;;;;;4530982;28;20045;-61
2022/12/04 12:23:37;;;;;;;4.85;4.13;;;;;;;;;;4517782;28;20097;-61
2022/12/04 12:25:57;;;;;;;5.03;4.05;;;;;;;;;;4507414;28;20072;-60
2022/12/04 12:28:10;;;;;;;4.78;4.00;;;;;;;;;;4530663;28;21198;-65
2022/12/04 12:30:21;;;;;;;4.57;3.95;;;;;;;;;;4512674;28;20152;-64
2022/12/04 12:32:31;;;;;;;4.53;3.80;;;;;;;;;;4531541;28;20036;-66
2022/12/04 12:34:43;;;;;;;4.63;3.80;;;;;;;;;;4531619;28;20143;-65
2022/12/04 12:36:55;;;;;;;5.72;4.05;;;;;;;;;;4530310;28;20537;-62
2022/12/04 12:39:14;;;;;;;4.57;3.78;;;;;;;;;;4530768;28;20148;-62
2022/12/04 12:41:36;;;;;;;5.32;4.43;;;;;;;;;;4515677;28;20486;-61
2022/12/04 12:43:49;;;;;;;5.25;4.15;;;;;;;;;;4522093;28;20581;-62
2022/12/04 12:46:03;;;;;;;4.60;4.00;;;;;;;;;;4531864;28;20084;-63
2022/12/04 12:48:23;;;;;;;5.43;4.20;;;;;;;;;;4515350;28;20149;-63
2022/12/04 12:50:36;;;;;;;5.20;3.97;;;;;;;;;;4516246;28;20017;-63
2022/12/04 12:52:54;;;;;;;5.20;4.13;;;;;;;;;;4529183;28;20046;-64
2022/12/04 12:55:13;;;;;;;5.63;4.72;;;;;;;;;;4530302;28;20030;-64
2022/12/04 12:57:27;;;;;;;4.40;3.80;;;;;;;;;;4516855;28;20121;-64
2022/12/04 12:59:40;;;;;;;4.80;3.90;;;;;;;;;;4532000;28;20034;-63
2022/12/04 13:01:56;;;;;;;5.18;4.10;;;;;;;;;;4528946;28;20054;-64
2022/12/04 13:04:13;;;;;;;5.38;4.05;;;;;;;;;;4514351;28;20046;-64
2022/12/04 13:06:30;;;;;;;5.03;4.15;;;;;;;;;;4529781;28;20037;-63
2022/12/04 13:08:51;;;;;;;4.68;3.97;;;;;;;;;;4528745;28;20812;-62
2022/12/04 13:11:05;;;;;;;4.47;3.90;;;;;;;;;;4529684;28;20695;-62
2022/12/04 13:13:27;;;;;;;5.55;4.20;;;;;;;;;;4528898;28;20117;-63
2022/12/04 13:15:43;;;;;;;5.13;4.20;;;;;;;;;;4528897;28;20029;-63
2022/12/04 13:17:54;;;;;;;4.72;4.07;;;;;;;;;;4527551;28;20548;-63
2022/12/04 13:20:08;;;;;;;5.90;4.60;;;;;;;;;;4530742;28;20037;-63
2022/12/04 13:22:40;;;;;;;4.30;3.80;;;;;;;;;;4514003;28;20029;-62
2022/12/04 13:25:06;;;;;;;4.95;4.00;;;;;;;;;;4530860;28;20129;-63
2022/12/04 13:27:35;;;;;;;5.00;3.90;;;;;;;;;;4520479;28;20063;-63
2022/12/04 13:30:15;;;;;;;4.43;3.60;;;;;;;;;;4529772;28;20036;-63
2022/12/04 13:32:28;;;;;;;4.78;4.03;;;;;;;;;;4513154;28;20128;-63